首页
METAR-TAF:

METAR-TAF

机场 :

安科纳, 意大利

纬度: 43-37N, 经度: 013-22E, 海拔: 12米

当前天气观测

该预报发布于1小时和21分钟前的10:50 UTC
风速7节,风向西北
温度 7°C
湿度 100%
气压 1022 hPa
能見度: 2500
少量云层高于300英尺
多云层高于800英尺
轻雾

METAR: LIPY 261050Z 32007KT 2500 BR FEW003 BKN008 07/07 Q1022

时间: 13:11 (12:11 UTC)

预报

该预报发布于1小时和11分钟前的11:00 UTC
预报有效从26日的 12点(UTC)到 27日的 12点(UTC)
风速5节,风向多变
能見度: 1600
多云层高于1000英尺
轻雾
成为
从 26日的 20点(UTC)到 26日的 23点(UTC)
能見度: 0400
多云层高于300英尺
成为
从 27日的 07点(UTC)到 27日的 09点(UTC)
能見度: 3000
散云层高于1400英尺
轻雾

TAF: LIPY 261100Z 2612/2712 VRB05KT 1600 BR BKN010 BECMG 2620/2623 0400 FG BKN003 BECMG 2707/2709 3000 BR SCT014

超过4000个机场的气象观测和天气预报(METAR&TAF报告)。

可查询的气象台以黄色和红色小点在地图上表示。

将鼠标移到小点上方,可查看气象台名称。

然后点击查看天气观测和预报。

如需切换地图:点击带黑十字的绿色按钮放大地图;点击带横线的绿色按钮缩小地图;或者点击绿色箭头查看邻近地区的地图。


METAR-TAF: